createdAt,value
2023-11-07T00:02:10.791Z,1005.82
2023-11-07T00:04:22.895Z,1005.87
2023-11-07T00:06:35.972Z,1005.90
2023-11-07T00:08:48.051Z,1005.94
2023-11-07T00:11:00.137Z,1005.98
2023-11-07T00:13:13.176Z,1005.99
2023-11-07T00:15:25.272Z,1006.01
2023-11-07T00:17:38.505Z,1006.02
2023-11-07T00:19:50.426Z,1006.09
2023-11-07T00:22:04.508Z,1006.20
2023-11-07T00:24:17.574Z,1006.17
2023-11-07T00:26:29.699Z,1006.23
2023-11-07T00:28:41.723Z,1006.21
2023-11-07T00:30:53.823Z,1006.30
2023-11-07T00:33:06.065Z,1006.31
2023-11-07T00:35:17.981Z,1006.38
2023-11-07T00:37:30.054Z,1006.37
2023-11-07T00:39:42.132Z,1006.40
2023-11-07T00:41:54.269Z,1006.39
2023-11-07T00:44:06.355Z,1006.43
2023-11-07T00:46:18.445Z,1006.45
2023-11-07T00:48:30.689Z,1006.46
2023-11-07T00:50:42.586Z,1006.48
2023-11-07T00:52:54.653Z,1006.48
2023-11-07T00:55:06.790Z,1006.53
2023-11-07T00:57:18.813Z,1006.52
2023-11-07T00:59:30.933Z,1006.54
2023-11-07T01:01:43.032Z,1006.58
2023-11-07T01:03:55.262Z,1006.65
2023-11-07T01:06:07.261Z,1006.66
2023-11-07T01:08:19.271Z,1006.62
2023-11-07T01:10:31.356Z,1006.68
2023-11-07T01:12:43.428Z,1006.66
2023-11-07T01:14:55.558Z,1006.68
2023-11-07T01:17:07.598Z,1006.70
2023-11-07T01:19:19.764Z,1006.70
2023-11-07T01:21:31.740Z,1006.73
2023-11-07T01:23:43.831Z,1006.71
2023-11-07T01:25:55.905Z,1006.73
2023-11-07T01:28:08.047Z,1006.73
2023-11-07T01:30:20.062Z,1006.78
2023-11-07T01:32:32.176Z,1006.82
2023-11-07T01:34:44.221Z,1006.83
2023-11-07T01:36:56.297Z,1006.83
2023-11-07T01:39:08.517Z,1006.84
2023-11-07T01:41:20.475Z,1006.82
2023-11-07T01:43:32.905Z,1006.86
2023-11-07T01:45:44.931Z,1006.85
2023-11-07T01:47:57.092Z,1006.84
2023-11-07T01:50:09.109Z,1006.88
2023-11-07T01:52:21.177Z,1006.85
2023-11-07T01:54:33.265Z,1006.80
2023-11-07T01:56:45.337Z,1006.82
2023-11-07T01:58:57.423Z,1006.88
2023-11-07T02:01:09.560Z,1006.87
2023-11-07T02:03:21.632Z,1006.85
2023-11-07T02:05:33.683Z,1006.87
2023-11-07T02:07:45.740Z,1006.88
2023-11-07T02:09:57.823Z,1007.00
2023-11-07T02:12:09.999Z,1006.94
2023-11-07T02:14:21.981Z,1006.92
2023-11-07T02:16:34.054Z,1006.93
2023-11-07T02:18:46.278Z,1006.92
2023-11-07T02:20:58.270Z,1006.96
2023-11-07T02:23:10.332Z,1006.95
2023-11-07T02:25:22.398Z,1007.04
2023-11-07T02:27:35.465Z,1007.00
2023-11-07T02:29:47.542Z,1007.02
2023-11-07T02:31:59.621Z,1007.06
2023-11-07T02:34:11.766Z,1007.08
2023-11-07T02:36:24.777Z,1007.11
2023-11-07T02:38:36.897Z,1007.12
2023-11-07T02:40:48.937Z,1007.15
2023-11-07T02:43:01.021Z,1007.15
2023-11-07T02:45:13.120Z,1007.13
2023-11-07T02:47:25.222Z,1007.18
2023-11-07T02:49:37.290Z,1007.21
2023-11-07T02:51:49.351Z,1007.17
2023-11-07T02:54:01.459Z,1007.19
2023-11-07T02:56:13.541Z,1007.19
2023-11-07T02:58:25.589Z,1007.22
2023-11-07T03:00:37.672Z,1007.20
2023-11-07T03:02:51.835Z,1007.19
2023-11-07T03:05:04.872Z,1007.21
2023-11-07T03:07:16.968Z,1007.23
2023-11-07T03:09:29.020Z,1007.23
2023-11-07T03:11:41.110Z,1007.24
2023-11-07T03:13:53.178Z,1007.25
2023-11-07T03:16:06.324Z,1007.24
2023-11-07T03:18:18.512Z,1007.27
2023-11-07T03:20:30.534Z,1007.23
2023-11-07T03:22:42.591Z,1007.27
2023-11-07T03:24:54.667Z,1007.26
2023-11-07T03:27:06.779Z,1007.24
2023-11-07T03:29:18.854Z,1007.24
2023-11-07T03:31:30.911Z,1007.31
2023-11-07T03:33:43.050Z,1007.32
2023-11-07T03:35:55.090Z,1007.35
2023-11-07T03:38:07.185Z,1007.39
2023-11-07T03:40:19.290Z,1007.41
2023-11-07T03:42:31.349Z,1007.37
2023-11-07T03:44:43.491Z,1007.41
2023-11-07T03:46:55.530Z,1007.42
2023-11-07T03:49:07.746Z,1007.35
2023-11-07T03:51:20.700Z,1007.41
2023-11-07T03:53:32.836Z,1007.36
2023-11-07T03:55:44.848Z,1007.41
2023-11-07T03:57:56.922Z,1007.43
2023-11-07T04:00:09.084Z,1007.48
2023-11-07T04:02:21.111Z,1007.45
2023-11-07T04:04:33.174Z,1007.48
2023-11-07T04:06:45.258Z,1007.51
2023-11-07T04:08:57.363Z,1007.50
2023-11-07T04:11:09.410Z,1007.55
2023-11-07T04:13:22.495Z,1007.50
2023-11-07T04:15:34.552Z,1007.56
2023-11-07T04:17:46.716Z,1007.48
2023-11-07T04:19:59.715Z,1007.41
2023-11-07T04:22:11.796Z,1007.47
2023-11-07T04:24:23.904Z,1007.46
2023-11-07T04:26:37.403Z,1007.53
2023-11-07T04:28:49.056Z,1007.50
2023-11-07T04:31:01.181Z,1007.52
2023-11-07T04:33:13.470Z,1007.56
2023-11-07T04:35:26.368Z,1007.55
2023-11-07T04:37:38.427Z,1007.59
2023-11-07T04:39:50.488Z,1007.57
2023-11-07T04:42:02.631Z,1007.66
2023-11-07T04:44:14.658Z,1007.65
2023-11-07T04:46:26.749Z,1007.63
2023-11-07T04:48:38.921Z,1007.58
2023-11-07T04:50:50.967Z,1007.65
2023-11-07T04:53:02.972Z,1007.65
2023-11-07T04:55:15.044Z,1007.61
2023-11-07T04:57:28.151Z,1007.68
2023-11-07T04:59:40.215Z,1007.65
2023-11-07T05:01:52.306Z,1007.71
2023-11-07T05:04:04.593Z,1007.67
2023-11-07T05:06:16.522Z,1007.71
2023-11-07T05:08:28.580Z,1007.67
2023-11-07T05:10:40.634Z,1007.65
2023-11-07T05:12:53.695Z,1007.64
2023-11-07T05:15:05.809Z,1007.65
2023-11-07T05:17:17.863Z,1007.63
2023-11-07T05:19:30.001Z,1007.70
2023-11-07T05:21:43.013Z,1007.69
2023-11-07T05:23:55.142Z,1007.72
2023-11-07T05:26:07.190Z,1007.77
2023-11-07T05:28:20.270Z,1007.76
2023-11-07T05:30:32.370Z,1007.75
2023-11-07T05:32:44.432Z,1007.82
2023-11-07T05:34:56.490Z,1007.87
2023-11-07T05:37:08.586Z,1007.85
2023-11-07T05:39:20.712Z,1007.91
2023-11-07T05:41:32.779Z,1007.91
2023-11-07T05:43:44.844Z,1008.02
2023-11-07T05:45:56.906Z,1008.06
2023-11-07T05:48:09.067Z,1008.07
2023-11-07T05:50:21.085Z,1008.14
2023-11-07T05:52:33.171Z,1008.21
2023-11-07T05:54:45.223Z,1008.23
2023-11-07T05:56:57.332Z,1008.24
2023-11-07T05:59:09.383Z,1008.24
2023-11-07T06:01:23.253Z,1008.27
2023-11-07T06:03:35.441Z,1008.30
2023-11-07T06:05:47.495Z,1008.30
2023-11-07T06:08:00.502Z,1008.30
2023-11-07T06:10:12.585Z,1008.37
2023-11-07T06:12:25.643Z,1008.34
2023-11-07T06:14:37.761Z,1008.40
2023-11-07T06:16:49.810Z,1008.36
2023-11-07T06:19:01.998Z,1008.43
2023-11-07T06:21:14.058Z,1008.43
2023-11-07T06:23:26.057Z,1008.45
2023-11-07T06:25:38.175Z,1008.47
2023-11-07T06:27:50.256Z,1008.48
2023-11-07T06:30:02.392Z,1008.47
2023-11-07T06:32:14.424Z,1008.50
2023-11-07T06:34:27.329Z,1008.53
2023-11-07T06:36:38.588Z,1008.57
2023-11-07T06:38:50.698Z,1008.57
2023-11-07T06:41:02.732Z,1008.57
2023-11-07T06:43:14.819Z,1008.59
2023-11-07T06:45:26.896Z,1008.64
2023-11-07T06:47:39.058Z,1008.64
2023-11-07T06:49:51.072Z,1008.64
2023-11-07T06:52:03.130Z,1008.61
2023-11-07T06:54:15.354Z,1008.66
2023-11-07T06:56:27.358Z,1008.62
2023-11-07T06:58:39.435Z,1008.58
2023-11-07T07:00:51.516Z,1008.62
2023-11-07T07:03:03.719Z,1008.64
2023-11-07T07:05:15.709Z,1008.64
2023-11-07T07:07:27.751Z,1008.67
2023-11-07T07:09:39.860Z,1008.64
2023-11-07T07:11:52.942Z,1008.65
2023-11-07T07:14:05.035Z,1008.65
2023-11-07T07:16:17.063Z,1008.61
2023-11-07T07:18:29.345Z,1008.71
2023-11-07T07:20:41.297Z,1008.73
2023-11-07T07:22:53.317Z,1008.75
2023-11-07T07:25:05.457Z,1008.79
2023-11-07T07:27:18.557Z,1008.79
2023-11-07T07:29:31.638Z,1008.79
2023-11-07T07:31:43.726Z,1008.75
2023-11-07T07:33:55.917Z,1008.77
2023-11-07T07:36:08.028Z,1008.81
2023-11-07T07:38:20.978Z,1008.75
2023-11-07T07:40:34.557Z,1008.74
2023-11-07T07:42:48.171Z,1008.77
2023-11-07T07:45:06.266Z,1008.79
2023-11-07T07:47:24.354Z,1008.85
2023-11-07T07:49:42.385Z,1008.83
2023-11-07T07:52:00.491Z,1008.85
2023-11-07T07:54:34.785Z,1008.80
2023-11-07T07:56:31.687Z,1008.82
2023-11-07T07:58:43.954Z,1008.78
2023-11-07T08:00:55.842Z,1008.81
2023-11-07T08:03:09.040Z,1008.81
2023-11-07T08:05:20.045Z,1008.80
2023-11-07T08:07:32.091Z,1008.83
2023-11-07T08:09:44.167Z,1008.83
2023-11-07T08:11:56.565Z,1008.85
2023-11-07T08:14:09.614Z,1008.88
2023-11-07T08:16:21.727Z,1008.82
2023-11-07T08:18:33.876Z,1008.87
2023-11-07T08:20:45.871Z,1008.95
2023-11-07T08:22:57.943Z,1008.96
2023-11-07T08:25:10.023Z,1008.98
2023-11-07T08:27:22.129Z,1009.07
2023-11-07T08:29:34.191Z,1009.10
2023-11-07T08:31:46.343Z,1009.17
2023-11-07T08:33:58.492Z,1009.19
2023-11-07T08:36:10.546Z,1009.15
2023-11-07T08:38:22.588Z,1009.16
2023-11-07T08:40:34.636Z,1009.15
2023-11-07T08:42:47.708Z,1009.15
2023-11-07T08:44:59.833Z,1009.20
2023-11-07T08:47:11.867Z,1009.18
2023-11-07T08:49:24.029Z,1009.19
2023-11-07T08:51:36.002Z,1009.22
2023-11-07T08:53:48.108Z,1009.20
2023-11-07T08:56:00.194Z,1009.22
2023-11-07T08:58:12.266Z,1009.21
2023-11-07T09:00:25.062Z,1009.22
2023-11-07T09:02:37.794Z,1009.17
2023-11-07T09:04:49.838Z,1009.15
2023-11-07T09:07:01.906Z,1009.12
2023-11-07T09:09:14.022Z,1009.16
2023-11-07T09:11:26.069Z,1009.22
2023-11-07T09:13:38.144Z,1009.21
2023-11-07T09:15:51.196Z,1009.22
2023-11-07T09:18:03.342Z,1009.27
2023-11-07T09:20:16.517Z,1009.27
2023-11-07T09:22:27.750Z,1009.29
2023-11-07T09:24:39.834Z,1009.28
2023-11-07T09:26:51.918Z,1009.31
2023-11-07T09:29:04.008Z,1009.23
2023-11-07T09:31:16.102Z,1009.24
2023-11-07T09:33:28.334Z,1009.29
2023-11-07T09:35:40.241Z,1009.30
2023-11-07T09:37:52.327Z,1009.27
2023-11-07T09:40:04.416Z,1009.34
2023-11-07T09:42:16.601Z,1009.32
2023-11-07T09:44:28.672Z,1009.34
2023-11-07T09:46:40.707Z,1009.31
2023-11-07T09:48:52.860Z,1009.25
2023-11-07T09:51:04.926Z,1009.29
2023-11-07T09:53:16.926Z,1009.25
2023-11-07T09:55:31.072Z,1009.24
2023-11-07T09:57:42.102Z,1009.20
2023-11-07T09:59:54.415Z,1009.20
2023-11-07T10:02:06.245Z,1009.21
2023-11-07T10:04:18.467Z,1009.15
2023-11-07T10:06:30.479Z,1009.10
2023-11-07T10:08:42.485Z,1009.22
2023-11-07T10:10:54.567Z,1009.13
2023-11-07T10:13:06.710Z,1009.17
2023-11-07T10:15:18.856Z,1009.17
2023-11-07T10:17:30.945Z,1009.21
2023-11-07T10:19:42.975Z,1009.19
2023-11-07T10:21:55.037Z,1009.29
2023-11-07T10:24:09.219Z,1009.28
2023-11-07T10:26:20.171Z,1009.26
2023-11-07T10:28:32.277Z,1009.26
2023-11-07T10:30:44.416Z,1009.27
2023-11-07T10:32:56.527Z,1009.28
2023-11-07T10:35:08.527Z,1009.28
2023-11-07T10:37:20.582Z,1009.29
2023-11-07T10:39:32.686Z,1009.30
2023-11-07T10:41:44.774Z,1009.23
2023-11-07T10:43:56.859Z,1009.26
2023-11-07T10:46:08.963Z,1009.22
2023-11-07T10:48:21.129Z,1009.24
2023-11-07T10:50:33.113Z,1009.21
2023-11-07T10:52:45.171Z,1009.17
2023-11-07T10:54:57.257Z,1009.12
2023-11-07T10:57:09.371Z,1009.09
2023-11-07T10:59:21.423Z,1009.08
2023-11-07T11:01:33.515Z,1009.06
2023-11-07T11:03:45.665Z,1009.00
2023-11-07T11:05:57.865Z,1009.06
2023-11-07T11:08:09.751Z,1009.03
2023-11-07T11:10:21.863Z,1009.07
2023-11-07T11:12:33.951Z,1009.05
2023-11-07T11:14:46.031Z,1009.02
2023-11-07T11:16:58.084Z,1009.02
2023-11-07T11:19:10.260Z,1008.99
2023-11-07T11:21:22.314Z,1009.00
2023-11-07T11:23:35.334Z,1008.96
2023-11-07T11:25:47.395Z,1009.00
2023-11-07T11:27:59.476Z,1009.08
2023-11-07T11:30:11.644Z,1009.05
2023-11-07T11:32:23.649Z,1009.11
2023-11-07T11:34:35.786Z,1009.06
2023-11-07T11:36:47.804Z,1009.05
2023-11-07T11:38:59.902Z,1008.99
2023-11-07T11:41:11.961Z,1009.01
2023-11-07T11:43:24.059Z,1008.99
2023-11-07T11:45:44.366Z,1009.01
2023-11-07T11:47:48.294Z,1008.99
2023-11-07T11:50:00.293Z,1009.01
2023-11-07T11:52:12.352Z,1009.03
2023-11-07T11:54:24.517Z,1009.03
2023-11-07T11:56:36.533Z,1009.06
2023-11-07T11:58:48.614Z,1009.05
2023-11-07T12:01:00.730Z,1009.09
2023-11-07T12:03:13.859Z,1009.05
2023-11-07T12:05:25.901Z,1008.96
2023-11-07T12:07:38.054Z,1008.93
2023-11-07T12:09:50.043Z,1009.01
2023-11-07T12:12:02.171Z,1008.98
2023-11-07T12:14:14.204Z,1008.93
2023-11-07T12:16:26.299Z,1008.93
2023-11-07T12:18:38.515Z,1008.90
2023-11-07T12:20:50.466Z,1008.90
2023-11-07T12:23:02.528Z,1008.91
2023-11-07T12:25:14.641Z,1008.90
2023-11-07T12:27:26.739Z,1008.88
2023-11-07T12:29:38.781Z,1008.89
2023-11-07T12:31:50.896Z,1008.80
2023-11-07T12:34:03.028Z,1008.80
2023-11-07T12:36:15.205Z,1008.85
2023-11-07T12:38:27.119Z,1008.86
2023-11-07T12:40:39.267Z,1008.81
2023-11-07T12:42:51.295Z,1008.81
2023-11-07T12:45:03.421Z,1008.85
2023-11-07T12:47:16.434Z,1008.89
2023-11-07T12:49:28.642Z,1008.79
2023-11-07T12:51:40.939Z,1008.87
2023-11-07T12:53:53.032Z,1008.86
2023-11-07T12:56:05.104Z,1008.81
2023-11-07T12:58:17.154Z,1008.82
2023-11-07T13:00:29.275Z,1008.80
2023-11-07T13:02:41.343Z,1008.83
2023-11-07T13:04:53.380Z,1008.77
2023-11-07T13:07:05.466Z,1008.85
2023-11-07T13:09:18.555Z,1008.82
2023-11-07T13:11:30.616Z,1008.78
2023-11-07T13:13:42.756Z,1008.78
2023-11-07T13:15:54.800Z,1008.78
2023-11-07T13:18:06.996Z,1008.73
2023-11-07T13:20:18.959Z,1008.74
2023-11-07T13:22:31.046Z,1008.76
2023-11-07T13:24:43.148Z,1008.77
2023-11-07T13:26:55.234Z,1008.76
2023-11-07T13:29:07.303Z,1008.76
2023-11-07T13:31:19.393Z,1008.76
2023-11-07T13:33:31.632Z,1008.70
2023-11-07T13:35:43.532Z,1008.68
2023-11-07T13:37:55.614Z,1008.65
2023-11-07T13:40:07.726Z,1008.64
2023-11-07T13:42:19.825Z,1008.64
2023-11-07T13:44:31.907Z,1008.62
2023-11-07T13:46:43.991Z,1008.62
2023-11-07T13:48:56.151Z,1008.61
2023-11-07T13:51:08.479Z,1008.59
2023-11-07T13:53:20.230Z,1008.57
2023-11-07T13:55:33.366Z,1008.55
2023-11-07T13:57:45.395Z,1008.59
2023-11-07T13:59:57.484Z,1008.55
2023-11-07T14:02:09.510Z,1008.55
2023-11-07T14:04:21.642Z,1008.58
2023-11-07T14:06:33.760Z,1008.52
2023-11-07T14:08:45.777Z,1008.57
2023-11-07T14:10:57.864Z,1008.56
2023-11-07T14:13:09.938Z,1008.52
2023-11-07T14:15:22.027Z,1008.51
2023-11-07T14:17:34.097Z,1008.54
2023-11-07T14:19:46.217Z,1008.58
2023-11-07T14:21:58.761Z,1008.60
2023-11-07T14:24:10.350Z,1008.58
2023-11-07T14:26:22.388Z,1008.63
2023-11-07T14:28:37.075Z,1008.62
2023-11-07T14:30:47.096Z,1008.59
2023-11-07T14:32:59.052Z,1008.63
2023-11-07T14:35:10.721Z,1008.59
2023-11-07T14:37:23.121Z,1008.64
2023-11-07T14:39:35.198Z,1008.59
2023-11-07T14:41:47.297Z,1008.63
2023-11-07T14:43:59.354Z,1008.58
2023-11-07T14:46:11.440Z,1008.58
2023-11-07T14:48:24.577Z,1008.65
2023-11-07T14:50:36.577Z,1008.62
2023-11-07T14:52:48.687Z,1008.64
2023-11-07T14:55:00.741Z,1008.60
2023-11-07T14:57:12.830Z,1008.60
2023-11-07T14:59:24.902Z,1008.62
2023-11-07T15:01:36.986Z,1008.60
2023-11-07T15:03:49.203Z,1008.61
2023-11-07T15:06:03.794Z,1008.59
2023-11-07T15:08:15.158Z,1008.61
2023-11-07T15:10:26.330Z,1008.67
2023-11-07T15:12:38.431Z,1008.65
2023-11-07T15:14:50.529Z,1008.65
2023-11-07T15:17:02.567Z,1008.63
2023-11-07T15:19:14.746Z,1008.56
2023-11-07T15:21:27.043Z,1008.52
2023-11-07T15:23:38.830Z,1008.52
2023-11-07T15:25:50.922Z,1008.60
2023-11-07T15:28:03.211Z,1008.54
2023-11-07T15:30:15.175Z,1008.57
2023-11-07T15:32:27.159Z,1008.62
2023-11-07T15:34:39.448Z,1008.64
2023-11-07T15:36:51.360Z,1008.67
2023-11-07T15:39:03.473Z,1008.65
2023-11-07T15:41:16.409Z,1008.65
2023-11-07T15:43:27.586Z,1008.66
2023-11-07T15:45:39.684Z,1008.65
2023-11-07T15:47:51.857Z,1008.74
2023-11-07T15:50:04.848Z,1008.71
2023-11-07T15:52:16.930Z,1008.70
2023-11-07T15:54:29.014Z,1008.72
2023-11-07T15:56:41.060Z,1008.74
2023-11-07T15:58:53.177Z,1008.74
2023-11-07T16:01:05.229Z,1008.76
2023-11-07T16:03:17.687Z,1008.76
2023-11-07T16:05:29.412Z,1008.79
2023-11-07T16:07:41.452Z,1008.73
2023-11-07T16:09:53.622Z,1008.74
2023-11-07T16:12:05.725Z,1008.76
2023-11-07T16:14:17.754Z,1008.77
2023-11-07T16:16:31.330Z,1008.82
2023-11-07T16:18:43.473Z,1008.82
2023-11-07T16:20:55.527Z,1008.82
2023-11-07T16:23:07.591Z,1008.83
2023-11-07T16:25:20.162Z,1008.81
2023-11-07T16:27:31.774Z,1008.82
2023-11-07T16:29:43.840Z,1008.84
2023-11-07T16:31:54.923Z,1008.81
2023-11-07T16:34:07.130Z,1008.81
2023-11-07T16:36:19.157Z,1008.87
2023-11-07T16:38:31.184Z,1008.87
2023-11-07T16:40:43.280Z,1008.87
2023-11-07T16:42:55.373Z,1008.86
2023-11-07T16:45:07.574Z,1008.85
2023-11-07T16:47:19.497Z,1008.91
2023-11-07T16:49:31.601Z,1008.92
2023-11-07T16:51:43.728Z,1008.98
2023-11-07T16:53:56.785Z,1008.97
2023-11-07T16:56:08.813Z,1008.93
2023-11-07T16:58:21.468Z,1008.91
2023-11-07T17:00:33.008Z,1008.95
2023-11-07T17:02:45.085Z,1008.99
2023-11-07T17:04:57.219Z,1009.00
2023-11-07T17:07:09.302Z,1009.02
2023-11-07T17:09:22.335Z,1009.03
2023-11-07T17:11:35.269Z,1009.00
2023-11-07T17:13:46.484Z,1008.95
2023-11-07T17:15:58.599Z,1008.97
2023-11-07T17:18:11.439Z,1008.97
2023-11-07T17:20:22.730Z,1008.98
2023-11-07T17:22:36.093Z,1008.95
2023-11-07T17:24:48.226Z,1008.97
2023-11-07T17:27:00.361Z,1009.05
2023-11-07T17:29:12.348Z,1009.05
2023-11-07T17:31:24.431Z,1009.09
2023-11-07T17:33:36.567Z,1009.05
2023-11-07T17:35:49.575Z,1009.09
2023-11-07T17:38:01.691Z,1009.08
2023-11-07T17:40:13.737Z,1009.08
2023-11-07T17:42:25.899Z,1009.04
2023-11-07T17:44:37.968Z,1009.08
2023-11-07T17:46:50.026Z,1009.02
2023-11-07T17:49:02.240Z,1009.07
2023-11-07T17:51:14.342Z,1009.03
2023-11-07T17:53:26.274Z,1009.11
2023-11-07T17:55:38.375Z,1009.13
2023-11-07T17:57:50.430Z,1009.12
2023-11-07T18:00:02.556Z,1009.06
2023-11-07T18:02:15.597Z,1009.09
2023-11-07T18:04:28.800Z,1009.11
2023-11-07T18:06:40.819Z,1009.10
2023-11-07T18:08:52.845Z,1009.11
2023-11-07T18:11:04.955Z,1009.11
2023-11-07T18:13:16.998Z,1009.09
2023-11-07T18:15:29.139Z,1009.09
2023-11-07T18:17:41.249Z,1009.13
2023-11-07T18:19:53.323Z,1009.16
2023-11-07T18:22:05.401Z,1009.16
2023-11-07T18:24:17.479Z,1009.15
2023-11-07T18:26:29.551Z,1009.25
2023-11-07T18:28:41.623Z,1009.24
2023-11-07T18:30:53.700Z,1009.29
2023-11-07T18:33:06.896Z,1009.35
2023-11-07T18:35:18.866Z,1009.38
2023-11-07T18:37:30.927Z,1009.44
2023-11-07T18:39:43.111Z,1009.46
2023-11-07T18:41:55.201Z,1009.54
2023-11-07T18:44:07.387Z,1009.58
2023-11-07T18:46:19.379Z,1009.67
2023-11-07T18:48:31.509Z,1009.81
2023-11-07T18:50:43.541Z,1009.82
2023-11-07T18:52:55.593Z,1009.73
2023-11-07T18:55:07.708Z,1009.70
2023-11-07T18:57:19.821Z,1009.63
2023-11-07T18:59:37.076Z,1009.64
2023-11-07T19:01:43.910Z,1009.67
2023-11-07T19:03:57.074Z,1009.61
2023-11-07T19:06:09.202Z,1009.62
2023-11-07T19:08:22.210Z,1009.57
2023-11-07T19:10:34.270Z,1009.60
2023-11-07T19:12:46.364Z,1009.52
2023-11-07T19:14:58.501Z,1009.50
2023-11-07T19:17:10.543Z,1009.50
2023-11-07T19:19:22.638Z,1009.47
2023-11-07T19:21:34.710Z,1009.47
2023-11-07T19:23:46.800Z,1009.44
2023-11-07T19:25:58.875Z,1009.49
2023-11-07T19:28:10.973Z,1009.50
2023-11-07T19:30:23.099Z,1009.48
2023-11-07T19:32:35.134Z,1009.51
2023-11-07T19:34:47.177Z,1009.49
2023-11-07T19:36:59.303Z,1009.48
2023-11-07T19:39:11.432Z,1009.45
2023-11-07T19:41:24.426Z,1009.47
2023-11-07T19:43:42.237Z,1009.52
2023-11-07T19:45:48.582Z,1009.52
2023-11-07T19:48:01.777Z,1009.56
2023-11-07T19:50:13.790Z,1009.58
2023-11-07T19:52:25.829Z,1009.57
2023-11-07T19:54:37.953Z,1009.64
2023-11-07T19:56:50.979Z,1009.64
2023-11-07T19:59:03.044Z,1009.64
2023-11-07T20:01:15.542Z,1009.65
2023-11-07T20:03:27.712Z,1009.60
2023-11-07T20:05:39.661Z,1009.58
2023-11-07T20:07:56.390Z,1009.58
2023-11-07T20:10:05.110Z,1009.61
2023-11-07T20:12:17.219Z,1009.61
2023-11-07T20:14:29.320Z,1009.59
2023-11-07T20:16:41.384Z,1009.55
2023-11-07T20:18:54.537Z,1009.57
2023-11-07T20:21:06.571Z,1009.59
2023-11-07T20:23:18.659Z,1009.61
2023-11-07T20:25:31.708Z,1009.58
2023-11-07T20:27:43.819Z,1009.55
2023-11-07T20:29:55.863Z,1009.52
2023-11-07T20:32:07.952Z,1009.52
2023-11-07T20:34:20.118Z,1009.55
2023-11-07T20:36:32.125Z,1009.53
2023-11-07T20:38:44.190Z,1009.49
2023-11-07T20:40:56.278Z,1009.54
2023-11-07T20:43:08.350Z,1009.53
2023-11-07T20:45:21.483Z,1009.52
2023-11-07T20:47:33.566Z,1009.50
2023-11-07T20:49:47.992Z,1009.54
2023-11-07T20:51:58.689Z,1009.58
2023-11-07T20:54:10.849Z,1009.52
2023-11-07T20:56:22.905Z,1009.60
2023-11-07T20:58:34.967Z,1009.55
2023-11-07T21:00:47.090Z,1009.61
2023-11-07T21:03:00.177Z,1009.59
2023-11-07T21:05:12.242Z,1009.56
2023-11-07T21:07:24.351Z,1009.63
2023-11-07T21:09:36.424Z,1009.65
2023-11-07T21:11:49.451Z,1009.66
2023-11-07T21:14:01.580Z,1009.63
2023-11-07T21:16:13.613Z,1009.63
2023-11-07T21:18:25.777Z,1009.65
2023-11-07T21:20:37.810Z,1009.61
2023-11-07T21:22:50.861Z,1009.59
2023-11-07T21:25:03.963Z,1009.56
2023-11-07T21:27:16.155Z,1009.57
2023-11-07T21:29:28.141Z,1009.51
2023-11-07T21:31:40.204Z,1009.57
2023-11-07T21:33:52.383Z,1009.55
2023-11-07T21:36:04.436Z,1009.52
2023-11-07T21:38:16.445Z,1009.55
2023-11-07T21:40:28.597Z,1009.55
2023-11-07T21:42:40.726Z,1009.53
2023-11-07T21:44:52.728Z,1009.59
2023-11-07T21:47:04.816Z,1009.57
2023-11-07T21:49:17.046Z,1009.55
2023-11-07T21:51:29.035Z,1009.59
2023-11-07T21:53:41.070Z,1009.62
2023-11-07T21:55:53.139Z,1009.59
2023-11-07T21:58:05.220Z,1009.62
2023-11-07T22:00:17.540Z,1009.69
2023-11-07T22:02:29.405Z,1009.70
2023-11-07T22:04:41.528Z,1009.68
2023-11-07T22:06:53.678Z,1009.71
2023-11-07T22:09:05.678Z,1009.67
2023-11-07T22:11:17.748Z,1009.72
2023-11-07T22:13:29.846Z,1009.73
2023-11-07T22:15:41.974Z,1009.73
2023-11-07T22:17:54.035Z,1009.78
2023-11-07T22:20:06.076Z,1009.76
2023-11-07T22:22:18.256Z,1009.79
2023-11-07T22:24:30.305Z,1009.75
2023-11-07T22:26:42.328Z,1009.76
2023-11-07T22:28:54.480Z,1009.78
2023-11-07T22:31:06.461Z,1009.79
2023-11-07T22:33:18.684Z,1009.79
2023-11-07T22:35:30.691Z,1009.84
2023-11-07T22:37:42.753Z,1009.81
2023-11-07T22:39:54.838Z,1009.81
2023-11-07T22:42:07.926Z,1009.82
2023-11-07T22:44:19.979Z,1009.83
2023-11-07T22:46:32.086Z,1009.84
2023-11-07T22:48:44.205Z,1009.82
2023-11-07T22:50:57.229Z,1009.82
2023-11-07T22:53:09.301Z,1009.87
2023-11-07T22:55:22.889Z,1009.94
2023-11-07T22:57:35.106Z,1009.92
2023-11-07T22:59:47.037Z,1009.94
2023-11-07T23:01:59.115Z,1009.97
2023-11-07T23:04:11.198Z,1009.97
2023-11-07T23:06:25.932Z,1010.02
2023-11-07T23:08:35.385Z,1009.98
2023-11-07T23:10:47.449Z,1010.03
2023-11-07T23:12:59.558Z,1010.01
2023-11-07T23:15:11.638Z,1009.99
2023-11-07T23:17:23.749Z,1010.04
2023-11-07T23:19:35.830Z,1010.07
2023-11-07T23:21:49.369Z,1010.08
2023-11-07T23:24:01.454Z,1010.06
2023-11-07T23:26:13.526Z,1010.07
2023-11-07T23:28:25.642Z,1010.05
2023-11-07T23:30:37.745Z,1010.07
2023-11-07T23:32:50.161Z,1010.04
2023-11-07T23:35:02.177Z,1010.00
2023-11-07T23:37:14.827Z,1010.01
2023-11-07T23:39:26.346Z,1010.02
2023-11-07T23:42:56.554Z,1010.03
2023-11-07T23:45:07.931Z,1010.04
2023-11-07T23:47:21.502Z,1010.01
2023-11-07T23:49:33.572Z,1010.05
2023-11-07T23:51:45.686Z,1010.03
2023-11-07T23:53:57.764Z,1010.00
2023-11-07T23:56:10.111Z,1009.96
2023-11-07T23:58:22.194Z,1010.01
